createdAt,value
2019-04-01T00:00:42.663Z,52.51
2019-04-01T00:03:13.227Z,52.85
2019-04-01T00:05:44.015Z,52.39
2019-04-01T00:08:14.598Z,52.42
2019-04-01T00:10:46.244Z,52.97
2019-04-01T00:13:19.492Z,53.56
2019-04-01T00:15:51.785Z,53.22
2019-04-01T00:18:22.364Z,52.91
2019-04-01T00:20:53.035Z,53.03
2019-04-01T00:23:23.611Z,53.69
2019-04-01T00:25:54.189Z,54.00
2019-04-01T00:28:24.762Z,53.54
2019-04-01T00:30:55.454Z,53.65
2019-04-01T00:33:27.188Z,52.96
2019-04-01T00:36:01.963Z,53.49
2019-04-01T00:38:32.577Z,53.93
2019-04-01T00:41:05.346Z,54.26
2019-04-01T00:43:40.412Z,54.27
2019-04-01T00:46:12.422Z,54.40
2019-04-01T00:48:43.068Z,54.46
2019-04-01T00:51:13.672Z,54.26
2019-04-01T00:53:44.261Z,54.83
2019-04-01T00:56:15.110Z,54.73
2019-04-01T00:59:03.456Z,54.11
2019-04-01T01:01:34.050Z,54.26
2019-04-01T01:04:04.621Z,53.75
2019-04-01T01:06:35.614Z,54.76
2019-04-01T01:09:06.518Z,54.13
2019-04-01T01:11:37.321Z,54.20
2019-04-01T01:14:07.988Z,53.53
2019-04-01T01:16:38.689Z,52.97
2019-04-01T01:19:09.311Z,53.83
2019-04-01T01:21:39.883Z,54.64
2019-04-01T01:24:10.509Z,54.09
2019-04-01T01:26:41.104Z,53.70
2019-04-01T01:29:18.207Z,54.25
2019-04-01T01:31:48.817Z,54.46
2019-04-01T01:34:19.485Z,54.57
2019-04-01T01:36:50.262Z,54.16
2019-04-01T01:39:21.836Z,55.04
2019-04-01T01:41:52.432Z,55.18
2019-04-01T01:44:23.093Z,53.36
2019-04-01T01:47:10.604Z,53.22
2019-04-01T01:50:01.916Z,52.51
2019-04-01T01:52:42.875Z,53.17
2019-04-01T01:55:15.620Z,53.63
2019-04-01T01:57:46.337Z,53.86
2019-04-01T02:00:25.651Z,53.80
2019-04-01T02:03:00.257Z,53.87
2019-04-01T02:05:31.937Z,54.27
2019-04-01T02:08:02.581Z,55.78
2019-04-01T02:10:33.127Z,55.83
2019-04-01T02:13:03.804Z,55.74
2019-04-01T02:15:34.718Z,55.95
2019-04-01T02:18:05.299Z,55.86
2019-04-01T02:20:36.014Z,56.25
2019-04-01T02:23:07.809Z,56.50
2019-04-01T02:25:44.418Z,56.27
2019-04-01T02:28:15.383Z,55.83
2019-04-01T02:30:45.994Z,56.45
2019-04-01T02:33:16.669Z,56.51
2019-04-01T02:35:59.527Z,56.33
2019-04-01T02:38:30.487Z,56.16
2019-04-01T02:41:02.389Z,56.12
2019-04-01T02:43:33.052Z,55.18
2019-04-01T02:46:03.737Z,55.56
2019-04-01T02:48:34.303Z,56.18
2019-04-01T02:51:04.983Z,56.69
2019-04-01T02:53:35.572Z,56.31
2019-04-01T02:56:07.220Z,56.80
2019-04-01T02:58:37.881Z,55.63
2019-04-01T03:01:08.533Z,56.07
2019-04-01T03:03:39.266Z,56.46
2019-04-01T03:06:22.064Z,56.46
2019-04-01T03:08:53.903Z,57.41
2019-04-01T03:11:24.489Z,57.45
2019-04-01T03:13:55.082Z,57.19
2019-04-01T03:16:25.805Z,57.90
2019-04-01T03:19:08.198Z,58.10
2019-04-01T03:21:38.923Z,57.95
2019-04-01T03:24:09.516Z,57.85
2019-04-01T03:26:40.120Z,58.73
2019-04-01T03:29:10.754Z,58.21
2019-04-01T03:31:41.321Z,57.65
2019-04-01T03:34:12.102Z,57.26
2019-04-01T03:36:50.933Z,58.43
2019-04-01T03:39:27.226Z,57.23
2019-04-01T03:41:57.982Z,57.24
2019-04-01T03:44:48.387Z,57.79
2019-04-01T03:47:19.032Z,58.26
2019-04-01T03:49:51.780Z,58.39
2019-04-01T03:52:22.864Z,57.79
2019-04-01T03:54:59.282Z,57.71
2019-04-01T03:57:30.206Z,57.98
2019-04-01T04:00:00.886Z,57.13
2019-04-01T04:02:31.721Z,57.91
2019-04-01T04:05:08.066Z,58.44
2019-04-01T04:07:38.782Z,58.13
2019-04-01T04:10:15.587Z,57.74
2019-04-01T04:12:46.135Z,57.58
2019-04-01T04:15:18.847Z,58.11
2019-04-01T04:17:49.535Z,57.06
2019-04-01T04:20:20.352Z,57.20
2019-04-01T04:23:02.415Z,58.41
2019-04-01T04:25:33.055Z,58.71
2019-04-01T04:28:04.203Z,57.38
2019-04-01T04:30:35.051Z,58.97
2019-04-01T04:33:07.859Z,58.06
2019-04-01T04:36:01.327Z,58.10
2019-04-01T04:38:31.939Z,58.88
2019-04-01T04:41:02.615Z,59.66
2019-04-01T04:43:36.286Z,58.98
2019-04-01T04:46:06.979Z,58.73
2019-04-01T04:48:39.879Z,59.22
2019-04-01T04:51:10.444Z,58.18
2019-04-01T04:53:44.896Z,58.70
2019-04-01T04:56:15.541Z,59.71
2019-04-01T04:58:46.307Z,59.76
2019-04-01T05:01:17.101Z,59.53
2019-04-01T05:03:47.780Z,59.17
2019-04-01T05:06:29.173Z,59.09
2019-04-01T05:08:59.908Z,59.44
2019-04-01T05:11:35.840Z,59.62
2019-04-01T05:14:06.430Z,60.61
2019-04-01T05:17:00.270Z,60.05
2019-04-01T05:19:30.990Z,60.50
2019-04-01T05:22:01.962Z,60.23
2019-04-01T05:24:42.663Z,58.95
2019-04-01T05:27:14.334Z,59.94
2019-04-01T05:29:45.882Z,59.76
2019-04-01T05:32:17.549Z,58.29
2019-04-01T05:34:49.805Z,58.74
2019-04-01T05:37:28.930Z,59.01
2019-04-01T05:39:59.719Z,57.82
2019-04-01T05:42:33.467Z,59.23
2019-04-01T05:45:05.737Z,58.94
2019-04-01T05:47:38.035Z,58.75
2019-04-01T05:50:08.830Z,58.90
2019-04-01T05:52:39.541Z,58.42
2019-04-01T05:55:24.089Z,59.09
2019-04-01T05:57:54.720Z,58.65
2019-04-01T06:00:47.153Z,58.33
2019-04-01T06:03:17.840Z,58.91
2019-04-01T06:05:48.535Z,58.29
2019-04-01T06:08:24.556Z,57.58
2019-04-01T06:10:55.224Z,57.27
2019-04-01T06:13:34.020Z,56.92
2019-04-01T06:16:28.528Z,56.56
2019-04-01T06:18:59.205Z,55.12
2019-04-01T06:21:29.879Z,55.21
2019-04-01T06:24:00.873Z,54.53
2019-04-01T06:26:31.639Z,54.99
2019-04-01T06:29:02.354Z,52.96
2019-04-01T06:31:33.143Z,53.58
2019-04-01T06:34:04.029Z,53.38
2019-04-01T06:36:34.676Z,51.98
2019-04-01T06:39:07.146Z,52.04
2019-04-01T06:41:38.169Z,52.46
2019-04-01T06:44:12.095Z,52.49
2019-04-01T06:46:43.152Z,52.59
2019-04-01T06:49:14.805Z,52.25
2019-04-01T06:51:45.379Z,51.76
2019-04-01T06:54:23.672Z,51.81
2019-04-01T06:56:54.720Z,51.85
2019-04-01T06:59:25.385Z,52.09
2019-04-01T07:02:05.186Z,51.38
2019-04-01T07:04:36.024Z,51.60
2019-04-01T07:07:27.617Z,50.79
2019-04-01T07:09:58.269Z,52.01
2019-04-01T07:12:28.938Z,52.27
2019-04-01T07:15:05.275Z,52.42
2019-04-01T07:17:37.151Z,51.38
2019-04-01T07:20:08.915Z,51.32
2019-04-01T07:22:39.843Z,50.60
2019-04-01T07:25:15.634Z,50.02
2019-04-01T07:27:46.282Z,50.00
2019-04-01T07:30:28.019Z,51.11
2019-04-01T07:32:58.679Z,51.24
2019-04-01T07:35:39.185Z,50.68
2019-04-01T07:38:09.897Z,51.07
2019-04-01T07:40:42.935Z,50.90
2019-04-01T07:43:15.105Z,50.02
2019-04-01T07:45:45.991Z,50.04
2019-04-01T07:48:16.858Z,49.22
2019-04-01T07:50:47.492Z,50.17
2019-04-01T07:53:18.227Z,48.92
2019-04-01T07:55:48.978Z,48.97
2019-04-01T07:58:20.745Z,48.88
2019-04-01T08:00:53.422Z,48.64
2019-04-01T08:03:29.855Z,48.27
2019-04-01T08:06:06.430Z,47.68
2019-04-01T08:08:37.139Z,47.08
2019-04-01T08:11:07.811Z,46.96
2019-04-01T08:13:52.715Z,47.70
2019-04-01T08:16:24.626Z,46.83
2019-04-01T08:18:55.296Z,47.31
2019-04-01T08:21:25.949Z,46.78
2019-04-01T08:24:06.099Z,45.96
2019-04-01T08:26:36.895Z,47.18
2019-04-01T08:29:07.537Z,46.88
2019-04-01T08:31:42.294Z,46.81
2019-04-01T08:34:12.929Z,47.24
2019-04-01T08:36:43.679Z,46.07
2019-04-01T08:39:26.513Z,45.77
2019-04-01T08:41:57.176Z,45.12
2019-04-01T08:44:27.828Z,43.94
2019-04-01T08:46:58.519Z,44.25
2019-04-01T08:49:29.670Z,44.23
2019-04-01T08:52:00.291Z,43.19
2019-04-01T08:54:31.157Z,42.74
2019-04-01T08:57:06.802Z,41.79
2019-04-01T08:59:56.126Z,42.10
2019-04-01T09:02:25.402Z,41.96
2019-04-01T09:04:56.273Z,42.65
2019-04-01T09:07:27.973Z,42.31
2019-04-01T09:10:05.219Z,41.79
2019-04-01T09:12:36.437Z,41.49
2019-04-01T09:15:09.919Z,42.48
2019-04-01T09:17:40.827Z,40.71
2019-04-01T09:20:15.837Z,40.93
2019-04-01T09:22:46.499Z,41.19
2019-04-01T09:25:17.118Z,39.80
2019-04-01T09:27:47.786Z,40.45
2019-04-01T09:30:18.962Z,38.60
2019-04-01T09:32:50.167Z,38.69
2019-04-01T09:35:22.890Z,39.76
2019-04-01T09:37:53.615Z,38.97
2019-04-01T09:40:26.192Z,39.27
2019-04-01T09:42:56.877Z,39.04
2019-04-01T09:45:27.508Z,39.61
2019-04-01T09:47:58.137Z,39.10
2019-04-01T09:50:28.701Z,38.59
2019-04-01T09:52:59.292Z,39.23
2019-04-01T09:55:29.898Z,38.44
2019-04-01T09:58:00.476Z,37.83
2019-04-01T10:00:31.129Z,38.24
2019-04-01T10:03:01.820Z,38.12
2019-04-01T10:05:33.680Z,38.21
2019-04-01T10:08:04.380Z,37.66
2019-04-01T10:10:35.153Z,38.08
2019-04-01T10:13:06.012Z,36.91
2019-04-01T10:15:36.756Z,37.81
2019-04-01T10:18:10.742Z,36.66
2019-04-01T10:20:41.399Z,37.03
2019-04-01T10:23:13.206Z,37.30
2019-04-01T10:25:44.060Z,36.75
2019-04-01T10:28:14.970Z,36.90
2019-04-01T10:30:45.702Z,36.75
2019-04-01T10:33:18.380Z,37.04
2019-04-01T10:35:49.366Z,37.14
2019-04-01T10:38:26.973Z,37.46
2019-04-01T10:40:57.642Z,36.80
2019-04-01T10:43:28.307Z,36.18
2019-04-01T10:45:58.967Z,36.63
2019-04-01T10:48:29.649Z,35.91
2019-04-01T10:51:00.413Z,36.40
2019-04-01T10:53:31.141Z,35.79
2019-04-01T10:56:02.916Z,36.05
2019-04-01T10:58:34.548Z,35.80
2019-04-01T11:01:07.205Z,35.93
2019-04-01T11:03:42.827Z,35.73
2019-04-01T11:06:13.468Z,36.30
2019-04-01T11:08:48.886Z,35.81
2019-04-01T11:11:19.557Z,36.43
2019-04-01T11:13:51.942Z,36.12
2019-04-01T11:16:23.877Z,35.81
2019-04-01T11:19:06.949Z,35.97
2019-04-01T11:21:37.667Z,36.50
2019-04-01T11:24:08.448Z,36.04
2019-04-01T11:26:39.033Z,36.19
2019-04-01T11:29:09.676Z,36.17
2019-04-01T11:31:50.225Z,36.28
2019-04-01T11:34:27.431Z,35.49
2019-04-01T11:37:26.149Z,35.23
2019-04-01T11:39:56.860Z,35.22
2019-04-01T11:42:27.394Z,35.45
2019-04-01T11:44:58.259Z,34.96
2019-04-01T11:47:28.891Z,35.38
2019-04-01T11:50:06.098Z,35.29
2019-04-01T11:52:38.056Z,34.83
2019-04-01T11:55:11.277Z,35.41
2019-04-01T11:57:41.959Z,35.50
2019-04-01T12:00:15.510Z,34.75
2019-04-01T12:02:46.523Z,34.37
2019-04-01T12:05:17.217Z,34.28
2019-04-01T12:07:47.828Z,34.67
2019-04-01T12:10:18.434Z,33.77
2019-04-01T12:12:49.077Z,33.97
2019-04-01T12:15:19.906Z,33.80
2019-04-01T12:17:50.488Z,33.80
2019-04-01T12:20:21.341Z,33.39
2019-04-01T12:22:51.964Z,35.09
2019-04-01T12:25:30.725Z,34.43
2019-04-01T12:28:01.723Z,35.52
2019-04-01T12:30:32.340Z,33.51
2019-04-01T12:33:26.272Z,33.40
2019-04-01T12:35:57.211Z,34.02
2019-04-01T12:38:39.075Z,33.77
2019-04-01T12:41:10.167Z,32.58
2019-04-01T12:43:40.782Z,32.64
2019-04-01T12:46:11.760Z,33.63
2019-04-01T12:48:42.450Z,34.25
2019-04-01T12:51:16.868Z,33.59
2019-04-01T12:53:56.537Z,33.76
2019-04-01T12:56:29.597Z,33.22
2019-04-01T12:59:00.354Z,33.67
2019-04-01T13:01:49.672Z,34.05
2019-04-01T13:04:20.661Z,33.75
2019-04-01T13:06:51.687Z,33.52
2019-04-01T13:09:22.770Z,33.39
2019-04-01T13:11:53.437Z,33.67
2019-04-01T13:14:27.623Z,33.70
2019-04-01T13:17:08.610Z,33.83
2019-04-01T13:19:39.301Z,33.87
2019-04-01T13:22:20.870Z,33.82
2019-04-01T13:24:51.607Z,34.26
2019-04-01T13:27:22.571Z,34.36
2019-04-01T13:29:56.526Z,33.88
2019-04-01T13:32:29.251Z,33.86
2019-04-01T13:34:59.833Z,33.77
2019-04-01T13:40:40.608Z,33.95
2019-04-01T13:43:11.488Z,34.09
2019-04-01T13:45:50.155Z,33.72
2019-04-01T13:48:26.228Z,34.08
2019-04-01T13:50:56.900Z,33.46
2019-04-01T13:53:28.561Z,33.03
2019-04-01T13:55:59.433Z,33.48
2019-04-01T13:58:29.942Z,33.38
2019-04-01T14:01:00.969Z,33.98
2019-04-01T14:03:31.691Z,33.75
2019-04-01T14:06:02.462Z,33.39
2019-04-01T14:08:33.225Z,33.79
2019-04-01T14:11:05.980Z,33.28
2019-04-01T14:13:47.981Z,34.17
2019-04-01T14:16:23.078Z,33.72
2019-04-01T14:19:00.724Z,34.74
2019-04-01T14:21:36.294Z,33.88
2019-04-01T14:24:07.188Z,33.61
2019-04-01T14:26:38.047Z,32.93
2019-04-01T14:29:20.799Z,33.58
2019-04-01T14:31:52.742Z,33.11
2019-04-01T14:34:24.449Z,33.91
2019-04-01T14:36:55.108Z,33.91
2019-04-01T14:39:25.853Z,34.10
2019-04-01T14:41:57.845Z,34.03
2019-04-01T14:44:34.715Z,34.27
2019-04-01T14:47:08.844Z,34.21
2019-04-01T14:49:37.653Z,33.98
2019-04-01T14:52:08.416Z,33.82
2019-04-01T14:54:39.070Z,34.39
2019-04-01T14:57:09.775Z,33.82
2019-04-01T14:59:40.445Z,33.50
2019-04-01T15:02:11.163Z,33.79
2019-04-01T15:04:41.775Z,33.47
2019-04-01T15:07:14.368Z,34.26
2019-04-01T15:09:56.131Z,33.93
2019-04-01T15:12:26.979Z,34.37
2019-04-01T15:15:07.375Z,34.22
2019-04-01T15:17:42.744Z,33.75
2019-04-01T15:20:17.328Z,33.63
2019-04-01T15:22:58.448Z,34.11
2019-04-01T15:25:45.477Z,33.78
2019-04-01T15:28:21.766Z,33.74
2019-04-01T15:30:59.015Z,34.33
2019-04-01T15:33:30.837Z,34.62
2019-04-01T15:36:04.261Z,34.33
2019-04-01T15:38:35.198Z,34.67
2019-04-01T15:41:05.802Z,34.29
2019-04-01T15:43:36.493Z,33.76
2019-04-01T15:46:08.526Z,34.28
2019-04-01T15:48:42.217Z,34.44
2019-04-01T15:51:18.287Z,34.64
2019-04-01T15:53:53.323Z,34.62
2019-04-01T15:56:25.044Z,34.72
2019-04-01T15:58:55.769Z,35.08
2019-04-01T16:01:30.283Z,35.39
2019-04-01T16:04:03.280Z,34.91
2019-04-01T16:06:38.205Z,34.47
2019-04-01T16:09:08.862Z,35.28
2019-04-01T16:11:39.545Z,34.94
2019-04-01T16:14:11.560Z,34.58
2019-04-01T16:16:45.926Z,35.07
2019-04-01T16:19:29.420Z,34.64
2019-04-01T16:22:00.249Z,34.97
2019-04-01T16:24:59.725Z,35.09
2019-04-01T16:27:30.471Z,34.94
2019-04-01T16:30:07.814Z,35.23
2019-04-01T16:32:41.892Z,35.50
2019-04-01T16:35:12.864Z,35.49
2019-04-01T16:37:44.892Z,35.29
2019-04-01T16:40:18.420Z,34.92
2019-04-01T16:43:00.646Z,35.07
2019-04-01T16:45:36.507Z,35.42
2019-04-01T16:48:08.489Z,35.43
2019-04-01T16:50:41.878Z,35.66
2019-04-01T16:53:16.875Z,35.56
2019-04-01T16:55:49.037Z,35.76
2019-04-01T16:58:24.250Z,35.92
2019-04-01T17:00:54.979Z,35.36
2019-04-01T17:03:37.876Z,35.75
2019-04-01T17:06:10.512Z,35.64
2019-04-01T17:08:41.152Z,36.06
2019-04-01T17:11:17.436Z,36.21
2019-04-01T17:13:55.658Z,36.25
2019-04-01T17:16:26.679Z,36.31
2019-04-01T17:19:00.566Z,36.91
2019-04-01T17:21:35.217Z,37.03
2019-04-01T17:24:05.953Z,36.80
2019-04-01T17:27:07.508Z,36.12
2019-04-01T17:29:38.203Z,36.56
2019-04-01T17:32:09.572Z,36.57
2019-04-01T17:34:41.167Z,36.47
2019-04-01T17:37:13.362Z,37.36
2019-04-01T17:39:44.025Z,37.62
2019-04-01T17:42:16.986Z,37.24
2019-04-01T17:44:50.948Z,36.98
2019-04-01T17:47:32.823Z,38.14
2019-04-01T17:50:03.812Z,37.13
2019-04-01T17:52:35.965Z,38.33
2019-04-01T17:55:08.673Z,38.04
2019-04-01T17:57:43.329Z,38.32
2019-04-01T18:00:28.919Z,38.57
2019-04-01T18:03:19.945Z,37.88
2019-04-01T18:05:50.766Z,39.08
2019-04-01T18:08:21.540Z,39.03
2019-04-01T18:10:52.223Z,39.19
2019-04-01T18:13:32.372Z,38.26
2019-04-01T18:16:07.151Z,38.77
2019-04-01T18:18:43.762Z,38.79
2019-04-01T18:21:14.410Z,39.46
2019-04-01T18:23:45.046Z,39.65
2019-04-01T18:26:15.750Z,39.99
2019-04-01T18:28:47.524Z,39.13
2019-04-01T18:31:20.327Z,39.44
2019-04-01T18:33:56.455Z,40.92
2019-04-01T18:36:24.693Z,41.70
2019-04-01T18:38:56.441Z,39.94
2019-04-01T18:41:27.270Z,40.93
2019-04-01T18:44:03.023Z,40.66
2019-04-01T18:46:47.997Z,41.10
2019-04-01T18:49:19.645Z,41.16
2019-04-01T18:51:51.344Z,40.38
2019-04-01T18:54:22.309Z,40.98
2019-04-01T18:56:54.422Z,40.44
2019-04-01T18:59:25.809Z,40.85
2019-04-01T19:01:57.746Z,40.65
2019-04-01T19:04:29.710Z,41.14
2019-04-01T19:07:05.641Z,42.21
2019-04-01T19:09:36.319Z,42.26
2019-04-01T19:12:09.148Z,41.84
2019-04-01T19:14:41.178Z,40.87
2019-04-01T19:17:14.140Z,40.44
2019-04-01T19:19:48.666Z,42.32
2019-04-01T19:22:29.046Z,40.90
2019-04-01T19:25:03.305Z,40.29
2019-04-01T19:27:43.088Z,40.70
2019-04-01T19:30:14.916Z,41.18
2019-04-01T19:32:48.059Z,42.48
2019-04-01T19:35:24.093Z,41.72
2019-04-01T19:37:56.369Z,41.98
2019-04-01T19:40:31.105Z,42.36
2019-04-01T19:43:03.560Z,43.10
2019-04-01T19:45:34.440Z,43.02
2019-04-01T19:48:06.109Z,44.29
2019-04-01T19:50:36.824Z,43.70
2019-04-01T19:53:08.464Z,43.42
2019-04-01T19:55:44.006Z,44.46
2019-04-01T19:58:14.608Z,44.89
2019-04-01T20:00:47.348Z,44.16
2019-04-01T20:03:18.131Z,44.09
2019-04-01T20:05:49.937Z,43.29
2019-04-01T20:08:22.112Z,44.54
2019-04-01T20:10:54.923Z,44.63
2019-04-01T20:13:25.595Z,44.99
2019-04-01T20:15:58.210Z,43.93
2019-04-01T20:18:29.953Z,43.39
2019-04-01T20:21:00.663Z,43.37
2019-04-01T20:23:32.368Z,42.74
2019-04-01T20:26:03.153Z,43.16
2019-04-01T20:28:41.374Z,43.16
2019-04-01T20:31:18.161Z,43.57
2019-04-01T20:33:49.299Z,43.39
2019-04-01T20:36:28.502Z,43.19
2019-04-01T20:38:55.259Z,43.99
2019-04-01T20:41:26.766Z,43.00
2019-04-01T20:43:57.345Z,43.95
2019-04-01T20:46:28.230Z,43.59
2019-04-01T20:49:02.014Z,44.11
2019-04-01T20:51:39.098Z,44.45
2019-04-01T20:54:09.788Z,45.13
2019-04-01T20:56:40.549Z,46.20
2019-04-01T20:59:11.249Z,46.55
2019-04-01T21:01:42.197Z,46.06
2019-04-01T21:04:22.091Z,46.68
2019-04-01T21:06:52.820Z,47.91
2019-04-01T21:09:23.396Z,48.42
2019-04-01T21:11:54.200Z,48.44
2019-04-01T21:14:24.879Z,48.35
2019-04-01T21:16:56.537Z,48.74
2019-04-01T21:19:27.235Z,48.96
2019-04-01T21:21:57.873Z,49.23
2019-04-01T21:24:28.548Z,50.08
2019-04-01T21:26:59.231Z,49.66
2019-04-01T21:29:29.934Z,49.78
2019-04-01T21:32:00.584Z,49.75
2019-04-01T21:34:31.205Z,49.23
2019-04-01T21:37:03.449Z,50.08
2019-04-01T21:39:34.097Z,50.58
2019-04-01T21:42:04.775Z,50.62
2019-04-01T21:44:35.363Z,50.56
2019-04-01T21:47:07.115Z,49.89
2019-04-01T21:49:37.816Z,50.47
2019-04-01T21:52:08.494Z,51.00
2019-04-01T21:54:39.080Z,51.43
2019-04-01T21:57:11.672Z,50.87
2019-04-01T21:59:42.188Z,51.28
2019-04-01T22:02:12.932Z,51.80
2019-04-01T22:04:43.588Z,52.58
2019-04-01T22:07:14.369Z,52.11
2019-04-01T22:09:44.943Z,52.46
2019-04-01T22:12:15.604Z,52.18
2019-04-01T22:14:50.557Z,51.38
2019-04-01T22:17:21.044Z,52.13
2019-04-01T22:19:51.653Z,52.57
2019-04-01T22:22:22.341Z,52.68
2019-04-01T22:24:53.015Z,53.07
2019-04-01T22:27:24.743Z,53.09
2019-04-01T22:29:55.483Z,52.93
2019-04-01T22:32:26.052Z,53.18
2019-04-01T22:35:08.599Z,53.26
2019-04-01T22:37:39.476Z,53.48
2019-04-01T22:40:17.032Z,53.25
2019-04-01T22:42:47.679Z,54.11
2019-04-01T22:45:29.439Z,53.84
2019-04-01T22:48:00.057Z,54.16
2019-04-01T22:50:30.673Z,54.37
2019-04-01T22:53:01.242Z,54.62
2019-04-01T22:55:32.890Z,54.67
2019-04-01T22:58:03.635Z,54.08
2019-04-01T23:00:40.420Z,54.55
2019-04-01T23:03:20.606Z,54.90
2019-04-01T23:05:51.289Z,55.05
2019-04-01T23:08:21.863Z,55.59
2019-04-01T23:10:56.300Z,55.50
2019-04-01T23:13:29.920Z,55.51
2019-04-01T23:16:07.389Z,54.95
2019-04-01T23:18:39.163Z,55.77
2019-04-01T23:21:09.727Z,56.32
2019-04-01T23:23:40.349Z,56.13
2019-04-01T23:26:24.085Z,56.11
2019-04-01T23:28:54.700Z,56.45
2019-04-01T23:31:25.315Z,56.81
2019-04-01T23:33:56.874Z,56.95
2019-04-01T23:36:27.636Z,56.91
2019-04-01T23:38:58.215Z,57.35
2019-04-01T23:41:47.202Z,57.16
2019-04-01T23:44:17.842Z,57.34
2019-04-01T23:46:48.465Z,57.80
2019-04-01T23:49:19.046Z,57.65
2019-04-01T23:51:55.754Z,56.98
2019-04-01T23:54:26.322Z,56.74
2019-04-01T23:56:56.914Z,57.42
2019-04-01T23:59:27.485Z,57.44
